TULLOCH (TUL)

Elevation: 515' · STANISLAUS R basin · Operator: US Bureau of Reclamation

Provisional data, subject to change.
Query executed Saturday at 8:29:12   clock

Select a sensor type for a plot of data.
Note: Reservoir Flows are daily averages.

Earlier

Date RES ELE    STORAGE    RES CHG    TOC STO    ABV TOC    OUTFLOW    INFLOW    EVAP    RIV REL    SPILL    DIS PWR   
 FEET   AF   AF   AF   AF   CFS   CFS   CFS   CFS   CFS   CFS  
03/26/2015 501.61 57060 607 57833 -773 2334 2645 5 0 0 2334
03/27/2015 500.95 56333 -727 57972 -1639 2314 1956 9 0 0 2314
03/28/2015 501.95 57435 1102 -- -- 2038 2602 8 0 0 2038
03/29/2015 502.14 57647 212 58250 -- 1770 1885 8 0 0 1770
03/30/2015 502.30 57826 179 58389 -- 1544 1642 8 0 0 1544
03/31/2015 501.88 57358 -468 58528 -- 1348 1121 9 0 0 1348
04/01/2015 502.29 57815 457 58667 -852 1264 1502 8 0 0 1264
04/02/2015 502.42 57960 145 58806 -846 1027 1107 7 0 0 1027
04/03/2015 502.29 57815 -145 58944 -1129 972 908 9 0 0 972
04/04/2015 502.00 57490 -325 59083 -1593 944 788 8 0 0 944
04/05/2015 501.94 57424 -66 59222 -1798 945 921 9 0 0 945
04/06/2015 502.00 57490 66 59361 -1871 954 990 3 0 0 954
04/07/2015 502.26 57781 291 59500 -1719 967 1120 6 0 35 932
04/08/2015 503.03 58644 863 59639 -995 893 1328 0 0 0 893
04/09/2015 503.04 58656 12 59778 -1122 945 959 8 0 0 945
04/10/2015 502.36 57893 -763 59917 -2024 946 569 8 0 0 946
04/11/2015 502.14 57647 -246 60056 -2409 1405 1294 13 0 0 1405
04/12/2015 500.98 56365 -- 60194 -3829 1999 1359 6 0 0 1999
04/13/2015 501.00 56387 22 60333 -3946 1956 1978 11 0 0 1956
04/14/2015 500.35 55682 -705 60472 -4790 1985 1639 9 0 0 1985
04/15/2015 500.90 56279 597 60611 -4332 2057 2368 10 0 0 2057
04/16/2015 501.33 56751 472 60750 -3999 2093 2341 10 0 0 2093
04/17/2015 501.94 57424 673 60889 -3465 1928 2281 14 0 0 1928
04/18/2015 502.00 57490 66 61028 -3538 1716 1759 10 0 0 1716
04/19/2015 501.92 57402 -88 61167 -3765 1579 1547 12 0 0 1579
04/20/2015 502.67 58240 838 61306 -3066 1504 1938 12 0 0 1504
04/21/2015 503.54 59226 986 61444 -2218 1251 1756 8 0 0 1251
04/22/2015 503.83 59556 330 61583 -2027 1121 1296 9 0 0 1121
04/23/2015 503.99 59739 183 61722 -1983 881 981 8 0 0 881
04/24/2015 503.87 59602 -137 61861 -2259 826 766 9 0 0 826
04/25/2015 -- -- -- -- -- -- -- -- -- -- --

Later | Latest

Warning! This data is preliminary and subject to revision.

Show TUL Map | Plot TUL Data | 1 Month TUL Data | Real-Time TUL Data | TUL Info